Latest Weather Observations for Maatsuyker Island

IDT60801

Issued at 10:01 am EDT Monday 6 February 2023 (issued every 10 minutes, with the page automatically refreshed every 10 minutes)

About weather observations | Map of weather stations | Latest weather observations for TAS | Other Formats
Station Details ID: 094041 Name: MAATSUYKER ISLAND LIGHTHOUSE Lat: -43.66 Lon: 146.27 Height: 146.5 m
Data from the previous 72 hours. | See also: Recent months at Maatsuyker Island
Date/Time
EDT
Temp
°C
App
Temp
°C
Dew
Point
°C
Rel
Hum
%
Delta-T
°C
Wind Press
QNH
hPa
Press
MSL
hPa
Rain since
9am
mm
Dir  Spd
km/h
Gust
km/h
Spd
kts
Gust
kts
06/10:00am 13.5 - - - - WNW 56 69 30 37 1013.7 1013.6 0.0
06/09:30am 13.0 - - - - WNW 50 59 27 32 1013.8 1013.7 0.0
06/09:25am 13.4 - - - - WNW 56 65 30 35 1013.7 1013.6 0.0
06/09:24am 13.4 - - - - WNW 48 54 26 29 1013.7 - 0.0
06/09:00am 13.1 - - - - WNW 69 80 37 43 1012.9 1012.8 1.4
06/08:45am 12.5 - - - - NW 72 87 39 47 1012.6 1012.5 1.4
06/08:44am 12.5 - - - - WNW 76 82 41 44 1012.6 - 1.4
06/08:43am 13.0 - - - - NW 72 87 39 47 1012.5 1012.4 1.4
06/08:42am 13.0 - - - - NNW 72 76 39 41 1012.5 - 1.4
06/08:36am 14.2 - - - - NNW 72 82 39 44 1012.6 1012.5 0.4
06/08:35am 14.2 - - - - WNW 69 80 37 43 1012.6 - 0.4
06/08:34am 14.2 - - - - NNW 72 80 39 43 1012.4 - 0.4
06/08:30am 14.3 - - - - NNW 74 82 40 44 1011.9 1011.8 0.4
06/08:08am 14.2 - - - - N 69 76 37 41 1011.5 1011.4 0.4
06/08:07am 14.2 - - - - NNW 69 74 37 40 1011.5 - 0.4
06/08:06am 14.2 - - - - N 69 76 37 41 1011.7 1011.6 0.4
06/08:05am 14.2 - - - - NNE 69 76 37 41 1011.7 - 0.4
06/08:02am 14.2 - - - - N 70 76 38 41 1012.0 1011.9 0.4
06/08:01am 14.2 - - - - NNW 69 74 37 40 1012.0 - 0.4
06/08:00am 14.1 - - - - N 70 76 38 41 1011.8 1011.6 0.4
06/07:59am 14.1 - - - - NNE 72 76 39 41 1011.7 - 0.4
06/07:58am 14.1 - - - - N 70 76 38 41 1011.8 - 0.4
06/07:48am 14.0 - - - - NW 69 72 37 39 1011.7 - 0.4
06/07:30am 13.7 - - - - NNW 69 76 37 41 1011.7 1011.5 0.4
06/07:26am 13.5 - - - - NNW 69 74 37 40 1011.8 - 0.4
06/07:24am 13.4 - - - - N 70 74 38 40 1011.7 - 0.4
06/07:18am 13.6 - - - - WNW 78 83 42 45 1011.6 - 0.4
06/07:13am 14.3 - - - - NNW 69 76 37 41 1011.7 1011.6 0.4
06/07:12am 14.3 - - - - NNW 65 74 35 40 1011.7 - 0.4
06/07:11am 14.2 - - - - NNW 69 76 37 41 1011.6 1011.5 0.4
06/07:10am 14.2 - - - - NNE 72 74 39 40 1011.6 - 0.4
06/07:00am 14.1 - - - - NNW 69 76 37 41 1011.8 1011.6 0.4
06/06:58am 14.2 - - - - NNW 67 72 36 39 1011.7 - 0.4
06/06:55am 14.1 - - - - N 70 76 38 41 1011.8 1011.7 0.4
06/06:54am 14.1 - - - - NW 69 74 37 40 1011.8 - 0.4
06/06:53am 14.2 - - - - N 70 76 38 41 1011.7 1011.6 0.4
06/06:52am 14.2 - - - - N 69 74 37 40 1011.7 - 0.4
06/06:51am 14.1 - - - - N 69 76 37 41 1011.6 1011.5 0.4
06/06:50am 14.1 - - - - NNW 72 76 39 41 1011.6 - 0.4
06/06:45am 14.1 - - - - NW 69 76 37 41 1011.5 1011.4 0.4
06/06:44am 14.1 - - - - NNE 69 74 37 40 1011.5 - 0.4
06/06:30am 14.0 - - - - NW 65 74 35 40 1011.8 1011.7 0.4
06/06:25am 13.9 - - - - NNW 67 74 36 40 1011.7 1011.6 0.4
06/06:24am 13.9 - - - - NW 65 72 35 39 1011.7 - 0.4
06/06:23am 13.9 - - - - NNW 67 74 36 40 1011.5 1011.4 0.4
06/06:22am 13.9 - - - - N 65 74 35 40 1011.5 - 0.4
06/06:15am 13.7 - - - - NNW 67 76 36 41 1011.7 1011.6 0.4
06/06:14am 13.7 - - - - NW 67 72 36 39 1011.7 - 0.4
06/06:12am 13.8 - - - - N 65 76 35 41 1011.5 1011.4 0.4
06/06:11am 13.8 - - - - NNE 70 76 38 41 1011.5 - 0.4
06/06:06am 13.8 - - - - NNW 65 72 35 39 1011.7 - 0.4
06/06:00am 13.6 - - - - NNW 65 72 35 39 1011.8 1011.7 0.4
06/05:59am 13.8 - - - - NW 65 72 35 39 1011.7 - 0.4
06/05:54am 13.7 - - - - NW 67 74 36 40 1011.4 1011.3 0.4
06/05:53am 13.7 - - - - N 67 70 36 38 1011.4 - 0.4
06/05:41am 13.7 - - - - NNW 67 72 36 39 1011.7 1011.6 0.4
06/05:40am 13.7 - - - - NW 67 70 36 38 1011.7 - 0.4
06/05:35am 13.5 - - - - N 69 78 37 42 1011.4 1011.3 0.4
06/05:34am 13.5 - - - - NNW 65 70 35 38 1011.4 - 0.4
06/05:32am 13.0 - - - - N 67 78 36 42 1011.2 1011.1 0.4
06/05:31am 13.0 - - - - NNE 72 78 39 42 1011.2 - 0.4
06/05:30am 13.1 - - - - NNW 65 78 35 42 1011.2 1011.2 0.4
06/05:29am 13.7 - - - - NNW 63 74 34 40 1011.4 1011.3 0.4
06/05:28am 13.7 - - - - NNW 63 74 34 40 1011.4 - 0.4
06/05:27am 13.5 - - - - NNW 61 72 33 39 1011.3 1011.2 0.4
06/05:26am 13.5 - - - - NNE 67 72 36 39 1011.3 - 0.4
06/05:07am 13.6 - - - - NNW 59 67 32 36 1011.2 - 0.4
06/05:00am 13.8 - - - - NNW 63 72 34 39 1011.1 1011.0 0.4
06/04:57am 13.6 - - - - NNW 65 72 35 39 1011.2 1011.1 0.4
06/04:56am 13.6 - - - - N 63 69 34 37 1011.2 - 0.4
06/04:52am 13.7 - - - - NW 65 72 35 39 1011.3 - 0.4
06/04:36am 13.4 - - - - N 63 72 34 39 1011.4 1011.3 0.4
06/04:30am 13.4 - - - - N 65 74 35 40 1011.1 1011.2 0.4
06/04:29am 13.4 - - - - N 65 74 35 40 1011.3 1011.2 0.4
06/04:28am 13.4 - - - - NNE 61 67 33 36 1011.3 - 0.4
06/04:27am 13.1 - - - - NNW 65 74 35 40 1011.4 1011.3 0.4
06/04:26am 13.1 - - - - NW 65 70 35 38 1011.4 - 0.4
06/04:22am 13.8 - - - - N 67 72 36 39 1011.0 - 0.4
06/04:00am 13.5 - - - - NNW 65 78 35 42 1011.4 1011.4 0.4
06/03:49am 13.4 - - - - NNW 72 80 39 43 1011.1 1011.0 0.4
06/03:48am 13.4 - - - - N 72 80 39 43 1011.1 - 0.4
06/03:47am 13.4 - - - - N 72 80 39 43 1011.2 1011.1 0.4
06/03:46am 13.4 - - - - NNE 74 80 40 43 1011.2 - 0.4
06/03:40am 13.4 - - - - N 72 80 39 43 1011.3 1011.2 0.4
06/03:39am 13.4 - - - - NNW 72 78 39 42 1011.3 - 0.4
06/03:36am 13.0 - - - - N 72 80 39 43 1011.1 1011.0 0.4
06/03:35am 13.0 - - - - NNE 74 80 40 43 1011.1 - 0.4
06/03:30am 13.2 - - - - NNW 69 78 37 42 1011.3 1011.2 0.4
06/03:00am 13.3 - - - - NNW 59 69 32 37 1011.8 1011.7 0.2
06/02:58am 13.4 - - - - NNW 56 61 30 33 1011.6 - 0.2
06/02:56am 13.4 - - - - NNE 63 69 34 37 1011.9 - 0.2
06/02:52am 13.1 - - - - N 59 74 32 40 1011.8 1011.7 0.2
06/02:51am 13.1 - - - - NNW 57 69 31 37 1011.8 - 0.2
06/02:50am 13.2 - - - - NNW 61 74 33 40 1011.8 1011.7 0.2
06/02:49am 13.2 - - - - NNE 61 69 33 37 1011.8 - 0.2
06/02:30am 13.1 - - - - NNW 59 70 32 38 1011.7 1011.5 0.0
06/02:11am 13.0 - - - - NNW 61 76 33 41 1011.6 1011.5 0.0
06/02:10am 13.0 - - - - NNW 57 69 31 37 1011.6 - 0.0
06/02:06am 12.9 - - - - N 63 76 34 41 1011.6 1011.5 0.0
06/02:05am 12.9 - - - - N 65 76 35 41 1011.6 - 0.0
06/02:03am 12.9 - - - - N 63 72 34 39 1011.6 1011.5 0.0
06/02:02am 12.9 - - - - NNW 61 70 33 38 1011.6 - 0.0
06/02:00am 12.9 - - - - N 65 74 35 40 1011.8 1011.7 0.0
06/01:59am 12.9 - - - - NNE 67 72 36 39 1011.8 - 0.0
06/01:53am 13.3 - - - - NNW 57 74 31 40 1011.7 1011.6 0.0
06/01:52am 13.3 - - - - N 69 74 37 40 1011.7 - 0.0
06/01:49am 13.4 - - - - NNW 48 67 26 36 1012.1 1012.0 0.0
06/01:48am 13.4 - - - - NNW 48 67 26 36 1012.1 - 0.0
06/01:30am 13.1 - - - - NNW 46 59 25 32 1012.4 - 0.0
06/01:00am 13.6 - - - - NNW 37 52 20 28 1012.5 1012.4 0.0
06/12:30am 13.2 - - - - NNW 39 59 21 32 1012.7 1012.7 0.0
06/12:29am 13.4 - - - - NNW 41 59 22 32 1012.8 1012.7 0.0
06/12:00am 13.1 - - - - NNW 54 65 29 35 1012.4 1012.3 0.0
 
Date/Time
EDT
Temp
°C
App
Temp
°C
Dew
Point
°C
Rel
Hum
%
Delta-T
°C
Wind Press
QNH
hPa
Press
MSL
hPa
Rain since
9am
mm
Dir  Spd
km/h
Gust
km/h
Spd
kts
Gust
kts
05/11:30pm 13.3 - - - - NNW 56 65 30 35 1012.6 1012.4 0.0
05/11:00pm 13.6 - - - - NNW 63 70 34 38 1012.5 1012.3 0.0
05/10:52pm 13.7 - - - - NNW 65 72 35 39 1012.5 - 0.0
05/10:41pm 14.1 - - - - NNW 57 65 31 35 1012.7 1012.6 0.0
05/10:40pm 14.1 - - - - N 61 65 33 35 1012.7 - 0.0
05/10:30pm 14.0 - - - - NNW 63 72 34 39 1012.7 1012.6 0.0
05/10:00pm 13.4 - - - - NNW 50 61 27 33 1013.1 1013.0 0.0
05/09:30pm 13.1 - - - - NNW 67 76 36 41 1012.9 1012.7 0.0
05/09:02pm 14.2 - - - - NNW 65 83 35 45 1012.2 1012.1 0.0
05/09:01pm 14.2 - - - - NNW 65 83 35 45 1012.2 - 0.0
05/09:00pm 14.1 - - - - NNW 65 74 35 40 1012.3 1012.2 0.0
05/08:33pm 13.6 - - - - NW 70 78 38 42 1012.3 1012.2 0.0
05/08:30pm 13.6 - - - - NW 70 78 38 42 1012.3 1012.2 0.0
05/08:15pm 14.3 - - - - NW 67 74 36 40 1012.4 - 0.0
05/08:00pm 14.2 - - - - NNW 65 76 35 41 1011.9 1011.8 0.0
05/07:59pm 14.4 - - - - NNW 65 74 35 40 1011.8 1011.7 0.0
05/07:56pm 14.2 - - - - NNW 65 74 35 40 1012.0 1011.9 0.0
05/07:52pm 14.3 - - - - NNW 65 74 35 40 1011.7 1011.6 0.0
05/07:36pm 14.4 - - - - NNW 65 72 35 39 1011.9 - 0.0
05/07:30pm 14.3 - - - - N 61 69 33 37 1011.9 1012.0 0.0
05/07:26pm 14.5 - - - - NNW 59 69 32 37 1012.0 1011.9 0.0
05/07:25pm 14.5 - - - - N 61 69 33 37 1012.0 - 0.0
05/07:00pm 14.4 - - - - NNW 56 65 30 35 1012.0 1011.9 0.0
05/06:55pm 14.3 - - - - NNW 57 70 31 38 1011.8 1011.7 0.0
05/06:54pm 14.3 - - - - NW 57 65 31 35 1011.8 - 0.0
05/06:30pm 13.9 - - - - N 63 72 34 39 1011.4 1011.3 0.0
05/06:19pm 14.5 - - - - NNW 57 65 31 35 1011.6 - 0.0
05/06:16pm 14.4 - - - - N 63 67 34 36 1011.8 - 0.0
05/06:10pm 14.5 - - - - N 59 69 32 37 1011.7 1011.6 0.0
05/06:09pm 14.5 - - - - NNW 57 65 31 35 1011.7 - 0.0
05/06:06pm 14.5 - - - - N 59 67 32 36 1011.7 1011.6 0.0
05/06:05pm 14.5 - - - - NNE 61 67 33 36 1011.7 - 0.0
05/06:00pm 14.4 - - - - N 59 67 32 36 1011.8 1011.7 0.0
05/05:59pm 14.4 - - - - NNW 57 65 31 35 1011.8 - 0.0
05/05:43pm 14.5 - - - - N 57 67 31 36 1012.1 1012.0 0.0
05/05:42pm 14.5 - - - - N 57 65 31 35 1012.1 - 0.0
05/05:41pm 14.5 - - - - N 57 67 31 36 1012.1 1012.0 0.0
05/05:40pm 14.5 - - - - NNW 54 59 29 32 1012.1 - 0.0
05/05:30pm 14.5 - - - - NNE 65 72 35 39 1012.0 1011.8 0.0
05/05:20pm 14.6 - - - - N 59 67 32 36 1012.0 1011.9 0.0
05/05:19pm 14.6 - - - - NNE 61 67 33 36 1012.0 - 0.0
05/05:18pm 14.6 - - - - N 57 67 31 36 1012.1 1012.0 0.0
05/05:17pm 14.6 - - - - NW 57 67 31 36 1012.1 - 0.0
05/05:15pm 14.7 - - - - NNW 57 67 31 36 1012.0 1011.9 0.0
05/05:14pm 14.7 - - - - NNE 63 67 34 36 1012.0 - 0.0
05/05:06pm 14.4 - - - - NNW 54 63 29 34 1012.1 1012.0 0.0
05/05:05pm 14.4 - - - - NNW 54 61 29 33 1012.1 - 0.0
05/05:04pm 14.6 - - - - NNW 54 63 29 34 1012.2 1012.1 0.0
05/05:03pm 14.6 - - - - NNE 57 61 31 33 1012.2 - 0.0
05/05:00pm 14.2 - - - - NNW 54 61 29 33 1012.1 1012.0 0.0
05/04:49pm 14.2 - - - - NNW 56 65 30 35 1011.9 1011.8 0.0
05/04:30pm 14.3 - - - - N 57 67 31 36 1012.1 1011.9 0.0
05/04:29pm 14.3 - - - - NNW 56 65 30 35 1012.0 - 0.0
05/04:26pm 14.2 - - - - NNE 61 67 33 36 1012.0 - 0.0
05/04:19pm 14.5 - - - - N 54 59 29 32 1012.1 - 0.0
05/04:09pm 14.5 - - - - NNE 61 65 33 35 1012.2 - 0.0
05/04:07pm 14.3 - - - - NNW 57 63 31 34 1012.3 - 0.0
05/04:00pm 14.5 - - - - N 57 65 31 35 1012.2 1012.1 0.0
05/03:45pm 14.0 - - - - NNW 59 67 32 36 1012.2 1012.1 0.0
05/03:44pm 14.0 - - - - N 57 65 31 35 1012.2 - 0.0
05/03:42pm 14.2 - - - - N 59 67 32 36 1012.4 1012.3 0.0
05/03:41pm 14.2 - - - - NW 57 61 31 33 1012.4 - 0.0
05/03:30pm 14.6 - - - - N 57 65 31 35 1012.4 1012.3 0.0
05/03:29pm 14.7 - - - - N 57 65 31 35 1012.4 - 0.0
05/03:06pm 14.6 - - - - N 54 63 29 34 1012.4 1012.3 0.0
05/03:05pm 14.6 - - - - NNE 57 63 31 34 1012.4 - 0.0
05/03:04pm 14.7 - - - - NNW 52 61 28 33 1012.4 1012.3 0.0
05/03:02pm 14.6 - - - - NW 50 56 27 30 1012.4 - 0.0
05/03:00pm 14.7 - - - - N 56 63 30 34 1012.4 1012.3 0.0
05/02:33pm 14.2 - - - - NNW 57 65 31 35 1012.6 1012.5 0.0
05/02:32pm 14.2 - - - - NNE 61 65 33 35 1012.6 - 0.0
05/02:30pm 14.3 - - - - NNW 56 63 30 34 1012.8 1012.7 0.0
05/02:28pm 14.5 - - - - NNW 56 61 30 33 1012.8 1012.7 0.0
05/02:27pm 14.5 - - - - NW 56 61 30 33 1012.8 - 0.0
05/02:24pm 14.6 - - - - NNW 56 61 30 33 1012.7 1012.6 0.0
05/02:22pm 14.3 - - - - N 57 59 31 32 1012.6 - 0.0
05/02:14pm 14.7 - - - - NNW 56 65 30 35 1012.4 1012.3 0.0
05/02:13pm 14.7 - - - - NW 54 61 29 33 1012.4 - 0.0
05/02:00pm 14.4 - - - - N 59 67 32 36 1012.5 1012.4 0.0
05/01:55pm 14.1 - - - - N 61 67 33 36 1012.5 - 0.0
05/01:46pm 14.1 - - - - NNW 54 59 29 32 1012.5 - 0.0
05/01:37pm 14.0 - - - - NNE 57 61 31 33 1012.6 - 0.0
05/01:30pm 14.1 - - - - NNW 56 65 30 35 1012.6 1012.5 0.0
05/01:29pm 14.2 - - - - N 56 65 30 35 1012.6 - 0.0
05/01:17pm 14.2 - - - - NNW 56 65 30 35 1012.5 1012.4 0.0
05/01:16pm 14.2 - - - - NW 54 65 29 35 1012.5 - 0.0
05/01:15pm 14.3 - - - - NNW 56 63 30 34 1012.6 1012.5 0.0
05/01:14pm 14.3 - - - - N 61 63 33 34 1012.6 - 0.0
05/01:08pm 14.5 - - - - NNW 54 61 29 33 1012.6 - 0.0
05/01:00pm 14.2 - - - - NNW 59 65 32 35 1012.5 1012.5 0.0
05/12:59pm 14.2 - - - - N 61 63 33 34 1012.6 - 0.0
05/12:35pm 14.1 - - - - NNW 56 63 30 34 1012.5 - 0.0
05/12:32pm 14.0 - - - - N 59 65 32 35 1012.4 - 0.0
05/12:30pm 14.0 - - - - NNW 57 63 31 34 1012.4 1012.3 0.0
05/12:27pm 14.1 - - - - N 57 59 31 32 1012.5 - 0.0
05/12:00pm 14.0 - - - - NNW 54 61 29 33 1012.4 1012.4 0.0
05/11:39am 14.0 - - - - NW 57 65 31 35 1012.1 1012.0 0.0
05/11:38am 14.0 - - - - N 59 65 32 35 1012.1 - 0.0
05/11:30am 14.1 - - - - NW 56 61 30 33 1012.2 1012.2 0.0
05/11:12am 13.8 - - - - NNW 56 61 30 33 1012.2 1012.1 0.0
05/11:11am 13.8 - - - - NW 57 61 31 33 1012.2 - 0.0
05/11:07am 14.0 - - - - NW 52 57 28 31 1012.1 1012.0 0.0
05/11:06am 14.0 - - - - N 54 57 29 31 1012.1 - 0.0
05/11:00am 13.9 - - - - NW 52 57 28 31 1012.2 1012.0 0.0
05/10:54am 14.0 - - - - NW 50 56 27 30 1012.1 1012.0 0.0
05/10:53am 14.0 - - - - NNW 50 56 27 30 1012.1 - 0.0
05/10:30am 13.9 - - - - NW 48 56 26 30 1012.1 1012.0 0.0
05/10:00am 13.9 - - - - NW 43 50 23 27 1012.0 1011.8 0.0
05/09:30am 13.5 - - - - WNW 44 52 24 28 1011.8 1011.7 0.0
05/09:00am 13.1 - - - - WNW 44 50 24 27 1011.8 1011.7 1.8
05/08:30am 13.1 - - - - WNW 43 48 23 26 1011.5 1011.3 1.8
05/08:00am 13.0 - - - - WNW 35 44 19 24 1011.3 1011.2 1.8
05/07:30am 12.8 - - - - WNW 35 41 19 22 1010.9 1010.8 1.8
05/07:00am 12.6 - - - - W 32 39 17 21 1010.6 1010.3 1.8
05/06:30am 12.7 - - - - WNW 32 37 17 20 1010.1 1009.9 1.8
05/06:00am 12.5 - - - - W 20 33 11 18 1009.7 1009.6 1.8
05/05:30am 12.5 - - - - W 20 28 11 15 1009.4 1009.2 1.8
05/05:00am 12.4 - - - - W 30 35 16 19 1009.0 1008.9 1.8
05/04:30am 12.4 - - - - WSW 24 33 13 18 1008.7 1008.6 1.8
05/04:00am 12.5 - - - - SW 24 32 13 17 1008.6 1008.5 1.8
05/03:30am 12.5 - - - - SW 26 33 14 18 1008.5 1008.4 1.8
05/03:00am 12.5 - - - - SW 33 43 18 23 1008.2 1008.1 1.8
05/02:30am 12.3 - - - - SW 32 46 17 25 1008.0 1007.9 1.8
05/02:00am 12.1 - - - - SW 32 48 17 26 1007.8 1007.7 1.6
05/01:30am 12.3 - - - - SW 35 46 19 25 1007.6 - 1.6
05/01:01am 12.5 - - - - SW 33 56 18 30 1007.3 1007.2 1.6
05/01:00am 12.6 - - - - SW 32 48 17 26 1007.3 1007.2 1.6
05/12:30am 12.6 - - - - SW 39 50 21 27 1007.1 1007.0 1.6
05/12:00am 12.5 - - - - SW 39 50 21 27 1006.9 1006.8 1.6
 
Date/Time
EDT
Temp
°C
App
Temp
°C
Dew
Point
°C
Rel
Hum
%
Delta-T
°C
Wind Press
QNH
hPa
Press
MSL
hPa
Rain since
9am
mm
Dir  Spd
km/h
Gust
km/h
Spd
kts
Gust
kts
04/11:30pm 12.4 - - - - SW 37 50 20 27 1006.8 1006.7 1.6
04/11:00pm 12.4 - - - - SW 39 50 21 27 1006.5 1006.3 1.6
04/10:38pm 12.3 - - - - SW 35 50 19 27 1006.4 1006.3 1.6
04/10:37pm 12.3 - - - - WSW 32 39 17 21 1006.4 - 1.6
04/10:30pm 12.4 - - - - SSW 43 56 23 30 1006.3 1006.2 1.6
04/10:22pm 12.4 - - - - SSW 33 52 18 28 1006.2 1006.1 1.6
04/10:21pm 12.4 - - - - SSW 33 52 18 28 1006.2 - 1.6
04/10:00pm 12.5 - - - - SW 32 48 17 26 1006.2 1006.0 1.6
04/09:30pm 11.8 - - - - SW 33 44 18 24 1005.6 1005.5 1.6
04/09:17pm 12.1 - - - - WSW 30 50 16 27 1005.3 1005.2 1.6
04/09:16pm 12.1 - - - - WSW 30 50 16 27 1005.3 - 1.6
04/09:00pm 12.0 - - - - WSW 33 48 18 26 1004.9 1004.8 1.6
04/08:42pm 12.0 - - - - WSW 35 56 19 30 1004.6 1004.4 1.6
04/08:41pm 12.0 - - - - WSW 35 56 19 30 1004.6 - 1.6
04/08:30pm 12.1 - - - - SW 37 50 20 27 1004.4 1004.2 1.6
04/08:00pm 12.1 - - - - SW 37 54 20 29 1004.1 1003.9 1.6
04/07:30pm 12.2 - - - - SW 43 52 23 28 1003.5 1003.3 1.6
04/07:00pm 12.2 - - - - SW 39 52 21 28 1002.7 1002.5 1.6
04/06:30pm 12.5 - - - - SW 41 50 22 27 1002.1 1002.0 1.6
04/06:00pm 12.4 - - - - SW 41 57 22 31 1001.7 1001.6 1.6
04/05:45pm 12.3 - - - - SW 37 59 20 32 1001.6 1001.5 1.6
04/05:44pm 12.3 - - - - SW 37 59 20 32 1001.6 - 1.6
04/05:30pm 12.4 - - - - SW 43 56 23 30 1001.4 1001.3 1.6
04/05:00pm 12.7 - - - - SSW 44 61 24 33 1001.0 1000.9 1.6
04/04:44pm 13.0 - - - - SSW 39 61 21 33 1000.6 1000.5 1.6
04/04:43pm 13.0 - - - - SSW 39 61 21 33 1000.6 - 1.6
04/04:30pm 12.6 - - - - SW 41 56 22 30 1000.5 1000.4 1.6
04/04:00pm 12.6 - - - - SSW 39 54 21 29 1000.2 1000.1 1.6
04/03:39pm 12.5 - - - - SSW 41 59 22 32 1000.0 999.9 1.6
04/03:38pm 12.5 - - - - SSW 41 59 22 32 1000.0 - 1.6
04/03:30pm 12.5 - - - - SSW 46 59 25 32 999.8 999.7 1.6
04/03:01pm 12.3 - - - - SSW 44 63 24 34 999.6 999.5 1.6
04/03:00pm 12.3 - - - - SSW 46 63 25 34 999.6 999.5 1.6
04/02:30pm 12.6 - - - - SSW 48 67 26 36 999.3 999.2 1.6
04/02:29pm 12.5 - - - - SSW 48 67 26 36 999.3 - 1.6
04/02:00pm 12.5 - - - - SSW 48 65 26 35 999.0 998.8 1.6
04/01:51pm 12.5 - - - - SSW 43 63 23 34 998.9 998.7 1.6
04/01:50pm 12.5 - - - - SSW 43 63 23 34 998.9 - 1.6
04/01:30pm 12.6 - - - - SSW 48 61 26 33 998.7 998.4 1.6
04/01:00pm 12.4 - - - - SSW 46 59 25 32 998.6 998.4 1.6
04/12:36pm 12.3 - - - - SSW 44 63 24 34 998.2 998.0 1.6
04/12:35pm 12.3 - - - - SSW 44 63 24 34 998.2 - 1.6
04/12:30pm 12.3 - - - - SSW 43 56 23 30 998.2 998.0 1.6
04/12:00pm 12.0 - - - - SSW 46 57 25 31 997.8 997.6 1.6
04/11:48am 12.1 - - - - SSW 46 65 25 35 997.8 997.6 1.6
04/11:47am 12.1 - - - - S 46 65 25 35 997.8 - 1.6
04/11:30am 12.1 - - - - SSW 43 56 23 30 997.5 997.4 1.0
04/11:00am 12.0 - - - - SSW 44 61 24 33 997.1 996.9 0.8
04/10:58am 12.1 - - - - SSW 43 61 23 33 997.0 - 0.8
04/10:30am 12.2 - - - - SSW 48 57 26 31 996.8 996.6 0.4
04/10:00am 12.2 - - - - SSW 46 59 25 32 996.5 996.3 0.2
04/09:30am 12.0 - - - - SSW 52 65 28 35 996.0 995.8 0.2
04/09:00am 12.3 - - - - S 54 69 29 37 995.6 995.4 29.0
04/08:30am 12.5 - - - - SSW 46 61 25 33 995.5 995.3 29.0
04/08:00am 12.6 - - - - SSW 39 56 21 30 994.9 994.8 28.6
04/07:53am 12.5 - - - - SSW 37 56 20 30 994.7 - 28.6
04/07:42am 12.6 - - - - S 46 54 25 29 994.7 - 28.6
04/07:33am 12.4 - - - - SW 37 56 20 30 994.5 - 28.6
04/07:30am 12.4 - - - - SW 39 56 21 30 994.5 994.4 28.6
04/07:13am 12.4 - - - - SSW 39 57 21 31 994.1 - 28.6
04/07:00am 12.3 - - - - SSW 39 54 21 29 993.9 993.8 28.6
04/06:30am 12.1 - - - - SW 37 48 20 26 993.7 993.6 28.6
04/06:16am 11.7 - - - - SW 39 57 21 31 993.6 - 28.6
04/06:00am 11.8 - - - - SW 41 52 22 28 993.4 993.3 28.6
04/05:30am 11.5 - - - - SW 37 48 20 26 993.0 992.8 28.4
04/05:00am 11.9 - - - - WSW 32 46 17 25 992.6 992.4 27.4
04/04:30am 12.1 - - - - WSW 30 43 16 23 992.3 992.1 26.8
04/04:00am 12.0 - - - - WSW 32 44 17 24 992.0 991.8 26.6
04/03:30am 12.0 - - - - WSW 30 41 16 22 992.0 991.8 26.4
04/03:00am 12.1 - - - - W 28 43 15 23 992.0 991.8 26.4
04/02:58am 12.0 - - - - W 28 35 15 19 992.0 - 26.4
04/02:43am 11.7 - - - - SW 37 43 20 23 991.9 - 26.4
04/02:30am 12.0 - - - - W 30 41 16 22 991.8 991.6 26.2
04/02:00am 12.0 - - - - W 24 33 13 18 991.5 991.3 25.8
04/01:30am 11.7 - - - - W 26 35 14 19 991.6 - 25.6
04/01:28am 11.8 - - - - W 28 35 15 19 991.6 - 25.6
04/01:00am 12.2 - - - - WNW 39 46 21 25 991.4 991.2 22.4
04/12:30am 12.1 - - - - WNW 35 46 19 25 991.4 991.2 18.8
04/12:00am 11.9 - - - - WNW 41 50 22 27 991.3 991.1 17.2
 
Date/Time
EDT
Temp
°C
App
Temp
°C
Dew
Point
°C
Rel
Hum
%
Delta-T
°C
Wind Press
QNH
hPa
Press
MSL
hPa
Rain since
9am
mm
Dir  Spd
km/h
Gust
km/h
Spd
kts
Gust
kts
03/11:30pm 11.9 - - - - W 43 56 23 30 991.1 990.9 15.2
03/11:00pm 12.0 - - - - WNW 43 52 23 28 990.7 990.5 13.2
03/10:51pm 11.9 - - - - NW 48 57 26 31 990.7 990.5 12.8
03/10:50pm 12.1 - - - - WNW 46 50 25 27 990.7 - 12.8
03/10:30pm 11.7 - - - - NW 63 74 34 40 989.7 989.5 11.2
03/10:10pm 12.1 - - - - NW 57 67 31 36 989.6 - 9.4
03/10:07pm 12.2 - - - - N 61 67 33 36 990.0 - 8.8
03/10:01pm 12.1 - - - - NW 57 76 31 41 990.0 - 8.2
03/10:00pm 11.9 - - - - NW 59 76 32 41 990.0 989.8 8.2
03/09:30pm 11.9 - - - - NW 72 87 39 47 989.5 989.3 6.4
03/09:00pm 12.6 - - - - NW 76 85 41 46 989.3 989.1 5.2
03/08:41pm 12.5 - - - - NW 76 83 41 45 988.7 - 4.4
03/08:30pm 12.8 - - - - NW 54 69 29 37 988.9 988.7 4.2
03/08:00pm 12.7 - - - - NW 54 61 29 33 989.0 988.8 3.0
03/07:30pm 12.2 - - - - NW 65 74 35 40 988.5 988.3 2.0
03/07:00pm 13.2 - - - - NW 59 70 32 38 988.2 988.0 0.4
03/06:30pm 14.1 - - - - NW 56 65 30 35 988.1 987.9 0.2
03/06:00pm 14.2 - - - - NW 59 67 32 36 987.8 987.7 0.2
03/05:30pm 14.2 - - - - NW 54 61 29 33 988.2 988.0 0.2
03/05:00pm 14.1 - - - - NW 52 61 28 33 988.1 987.9 0.2
03/04:30pm 14.6 - - - - NW 52 57 28 31 988.4 988.2 0.2
03/04:00pm 14.2 - - - - NW 50 57 27 31 988.2 988.0 0.2
03/03:30pm 14.7 - - - - NW 48 54 26 29 988.2 988.0 0.2
03/03:27pm 14.5 - - - - NNW 48 52 26 28 988.2 - 0.2
03/03:00pm 14.9 - - - - WNW 44 50 24 27 988.6 988.4 0.2
03/02:30pm 14.6 - - - - WNW 39 46 21 25 988.5 988.3 0.2
03/02:00pm 14.8 - - - - NW 39 44 21 24 988.4 988.2 0.2
03/01:30pm 14.8 - - - - WNW 33 39 18 21 988.7 988.5 0.2
03/01:00pm 15.3 - - - - WNW 32 39 17 21 988.7 988.5 0.2
03/12:30pm 15.4 - - - - WNW 30 33 16 18 988.4 988.2 0.2
03/12:00pm 15.2 - - - - WNW 26 33 14 18 988.6 988.4 0.2
03/11:30am 14.8 - - - - WNW 24 32 13 17 988.5 988.3 0.0
03/11:00am 14.0 - - - - WNW 28 35 15 19 988.2 988.0 0.0
03/10:30am 13.5 - - - - WNW 28 35 15 19 987.8 987.7 0.0

Other formats

Comma delimited format used in spreadsheet applications
http://www.bom.gov.au/fwo/IDT60801/IDT60801.94962.axf

JavaScript Object Notation format (JSON) in row-major order
http://www.bom.gov.au/fwo/IDT60801/IDT60801.94962.json

Data quality

Most of these data are generated automatically and are frequently updated. Quality checks on data are not normally performed. It is possible for incorrect values to appear. Refer to information at About Latest Weather Observations and please check the disclaimer before using these data.